sensor_id;sensor_type;location;lat;lon;timestamp;P1;durP1;ratioP1;P2;durP2;ratioP2
37545;SDS011;23389;52.484;13.572;2023-03-14T00:01:08;3.35;;;0.90;;
37545;SDS011;23389;52.484;13.572;2023-03-14T00:03:33;2.17;;;0.90;;
37545;SDS011;23389;52.484;13.572;2023-03-14T00:06:01;3.90;;;1.00;;
37545;SDS011;23389;52.484;13.572;2023-03-14T00:08:26;3.83;;;1.00;;
37545;SDS011;23389;52.484;13.572;2023-03-14T00:10:51;1.80;;;0.75;;
37545;SDS011;23389;52.484;13.572;2023-03-14T00:13:16;2.78;;;1.02;;
37545;SDS011;23389;52.484;13.572;2023-03-14T00:15:41;2.13;;;0.80;;
37545;SDS011;23389;52.484;13.572;2023-03-14T00:18:06;2.53;;;0.90;;
37545;SDS011;23389;52.484;13.572;2023-03-14T00:20:32;3.47;;;1.17;;
37545;SDS011;23389;52.484;13.572;2023-03-14T00:22:57;2.38;;;0.90;;
37545;SDS011;23389;52.484;13.572;2023-03-14T00:25:22;2.50;;;0.88;;
37545;SDS011;23389;52.484;13.572;2023-03-14T00:27:47;3.20;;;1.00;;
37545;SDS011;23389;52.484;13.572;2023-03-14T00:30:14;3.63;;;0.93;;
37545;SDS011;23389;52.484;13.572;2023-03-14T00:32:40;3.42;;;1.05;;
37545;SDS011;23389;52.484;13.572;2023-03-14T00:35:05;1.98;;;0.80;;
37545;SDS011;23389;52.484;13.572;2023-03-14T00:37:30;3.25;;;0.85;;
37545;SDS011;23389;52.484;13.572;2023-03-14T00:39:55;2.65;;;0.85;;
37545;SDS011;23389;52.484;13.572;2023-03-14T00:42:20;3.47;;;1.00;;
37545;SDS011;23389;52.484;13.572;2023-03-14T00:44:45;3.80;;;1.20;;
37545;SDS011;23389;52.484;13.572;2023-03-14T00:47:11;3.13;;;1.03;;
37545;SDS011;23389;52.484;13.572;2023-03-14T00:49:36;2.63;;;1.00;;
37545;SDS011;23389;52.484;13.572;2023-03-14T00:52:01;3.03;;;1.08;;
37545;SDS011;23389;52.484;13.572;2023-03-14T00:54:26;3.38;;;0.90;;
37545;SDS011;23389;52.484;13.572;2023-03-14T00:56:51;2.40;;;0.90;;
37545;SDS011;23389;52.484;13.572;2023-03-14T00:59:16;3.20;;;1.08;;
37545;SDS011;23389;52.484;13.572;2023-03-14T01:01:42;2.72;;;1.05;;
37545;SDS011;23389;52.484;13.572;2023-03-14T01:04:07;3.08;;;1.15;;
37545;SDS011;23389;52.484;13.572;2023-03-14T01:06:32;3.17;;;1.00;;
37545;SDS011;23389;52.484;13.572;2023-03-14T01:08:57;2.67;;;1.00;;
37545;SDS011;23389;52.484;13.572;2023-03-14T01:11:24;1.23;;;0.68;;
37545;SDS011;23389;52.484;13.572;2023-03-14T01:13:50;2.30;;;1.00;;
37545;SDS011;23389;52.484;13.572;2023-03-14T01:16:16;3.10;;;1.17;;
37545;SDS011;23389;52.484;13.572;2023-03-14T01:18:42;2.47;;;1.10;;
37545;SDS011;23389;52.484;13.572;2023-03-14T01:21:13;3.17;;;1.00;;
37545;SDS011;23389;52.484;13.572;2023-03-14T01:23:38;2.40;;;0.98;;
37545;SDS011;23389;52.484;13.572;2023-03-14T01:26:03;2.03;;;0.90;;
37545;SDS011;23389;52.484;13.572;2023-03-14T01:28:28;2.53;;;1.00;;
37545;SDS011;23389;52.484;13.572;2023-03-14T01:30:53;3.05;;;1.17;;
37545;SDS011;23389;52.484;13.572;2023-03-14T01:33:18;2.03;;;0.90;;
37545;SDS011;23389;52.484;13.572;2023-03-14T01:35:43;2.22;;;0.95;;
37545;SDS011;23389;52.484;13.572;2023-03-14T01:38:09;2.47;;;1.13;;
37545;SDS011;23389;52.484;13.572;2023-03-14T01:40:34;2.72;;;1.00;;
37545;SDS011;23389;52.484;13.572;2023-03-14T01:43:12;4.30;;;1.10;;
37545;SDS011;23389;52.484;13.572;2023-03-14T01:48:22;2.42;;;0.70;;
37545;SDS011;23389;52.484;13.572;2023-03-14T01:50:47;2.80;;;0.98;;
37545;SDS011;23389;52.484;13.572;2023-03-14T01:53:12;4.28;;;0.93;;
37545;SDS011;23389;52.484;13.572;2023-03-14T01:55:38;2.28;;;0.90;;
37545;SDS011;23389;52.484;13.572;2023-03-14T01:58:03;3.28;;;1.05;;
37545;SDS011;23389;52.484;13.572;2023-03-14T02:00:29;3.22;;;1.05;;
37545;SDS011;23389;52.484;13.572;2023-03-14T02:03:02;2.05;;;1.00;;
37545;SDS011;23389;52.484;13.572;2023-03-14T02:05:30;4.50;;;0.98;;
37545;SDS011;23389;52.484;13.572;2023-03-14T02:08:00;2.50;;;0.80;;
37545;SDS011;23389;52.484;13.572;2023-03-14T02:10:33;3.20;;;1.00;;
37545;SDS011;23389;52.484;13.572;2023-03-14T02:12:59;1.88;;;0.73;;
37545;SDS011;23389;52.484;13.572;2023-03-14T02:15:26;2.97;;;0.80;;
37545;SDS011;23389;52.484;13.572;2023-03-14T02:17:51;2.87;;;1.00;;
37545;SDS011;23389;52.484;13.572;2023-03-14T02:20:28;2.03;;;0.80;;
37545;SDS011;23389;52.484;13.572;2023-03-14T02:22:55;2.47;;;0.90;;
37545;SDS011;23389;52.484;13.572;2023-03-14T02:27:48;1.90;;;0.70;;
37545;SDS011;23389;52.484;13.572;2023-03-14T02:30:15;2.42;;;0.77;;
37545;SDS011;23389;52.484;13.572;2023-03-14T02:32:41;2.88;;;0.80;;
37545;SDS011;23389;52.484;13.572;2023-03-14T02:35:09;1.80;;;0.70;;
37545;SDS011;23389;52.484;13.572;2023-03-14T02:37:41;1.98;;;0.88;;
37545;SDS011;23389;52.484;13.572;2023-03-14T02:40:08;5.72;;;0.80;;
37545;SDS011;23389;52.484;13.572;2023-03-14T02:42:34;3.45;;;1.00;;
37545;SDS011;23389;52.484;13.572;2023-03-14T02:45:01;2.13;;;1.10;;
37545;SDS011;23389;52.484;13.572;2023-03-14T02:47:46;2.28;;;0.88;;
37545;SDS011;23389;52.484;13.572;2023-03-14T02:50:14;1.90;;;0.80;;
37545;SDS011;23389;52.484;13.572;2023-03-14T02:52:40;1.50;;;0.75;;
37545;SDS011;23389;52.484;13.572;2023-03-14T02:55:06;3.08;;;0.85;;
37545;SDS011;23389;52.484;13.572;2023-03-14T02:57:31;2.17;;;0.77;;
37545;SDS011;23389;52.484;13.572;2023-03-14T03:00:00;2.03;;;0.70;;
37545;SDS011;23389;52.484;13.572;2023-03-14T03:02:25;3.33;;;0.70;;
37545;SDS011;23389;52.484;13.572;2023-03-14T03:04:51;2.67;;;1.08;;
37545;SDS011;23389;52.484;13.572;2023-03-14T03:07:16;1.88;;;0.73;;
37545;SDS011;23389;52.484;13.572;2023-03-14T03:09:41;3.00;;;0.80;;
37545;SDS011;23389;52.484;13.572;2023-03-14T03:12:06;2.78;;;0.80;;
37545;SDS011;23389;52.484;13.572;2023-03-14T03:14:31;3.50;;;1.07;;
37545;SDS011;23389;52.484;13.572;2023-03-14T03:16:56;1.80;;;0.63;;
37545;SDS011;23389;52.484;13.572;2023-03-14T03:19:21;1.63;;;0.77;;
37545;SDS011;23389;52.484;13.572;2023-03-14T03:21:46;3.13;;;0.80;;
37545;SDS011;23389;52.484;13.572;2023-03-14T03:24:11;1.67;;;0.80;;
37545;SDS011;23389;52.484;13.572;2023-03-14T03:26:37;2.40;;;0.73;;
37545;SDS011;23389;52.484;13.572;2023-03-14T03:29:02;2.20;;;0.60;;
37545;SDS011;23389;52.484;13.572;2023-03-14T03:31:27;1.13;;;0.68;;
37545;SDS011;23389;52.484;13.572;2023-03-14T03:33:52;2.93;;;0.63;;
37545;SDS011;23389;52.484;13.572;2023-03-14T03:36:24;3.33;;;0.80;;
37545;SDS011;23389;52.484;13.572;2023-03-14T03:38:50;2.80;;;0.80;;
37545;SDS011;23389;52.484;13.572;2023-03-14T03:41:15;1.83;;;0.80;;
37545;SDS011;23389;52.484;13.572;2023-03-14T03:43:40;2.88;;;0.90;;
37545;SDS011;23389;52.484;13.572;2023-03-14T03:46:06;2.50;;;0.80;;
37545;SDS011;23389;52.484;13.572;2023-03-14T03:48:31;2.70;;;0.77;;
37545;SDS011;23389;52.484;13.572;2023-03-14T03:50:56;1.57;;;0.80;;
37545;SDS011;23389;52.484;13.572;2023-03-14T03:53:21;2.00;;;0.80;;
37545;SDS011;23389;52.484;13.572;2023-03-14T03:55:46;4.10;;;0.83;;
37545;SDS011;23389;52.484;13.572;2023-03-14T03:58:12;1.58;;;0.65;;
37545;SDS011;23389;52.484;13.572;2023-03-14T04:00:37;1.20;;;0.55;;
37545;SDS011;23389;52.484;13.572;2023-03-14T04:03:02;2.07;;;0.80;;
37545;SDS011;23389;52.484;13.572;2023-03-14T04:05:27;1.60;;;0.65;;
37545;SDS011;23389;52.484;13.572;2023-03-14T04:07:52;2.17;;;0.85;;
37545;SDS011;23389;52.484;13.572;2023-03-14T04:10:17;1.85;;;0.80;;
37545;SDS011;23389;52.484;13.572;2023-03-14T04:12:42;3.17;;;1.00;;
37545;SDS011;23389;52.484;13.572;2023-03-14T04:15:08;1.50;;;0.77;;
37545;SDS011;23389;52.484;13.572;2023-03-14T04:17:33;1.85;;;0.70;;
37545;SDS011;23389;52.484;13.572;2023-03-14T04:19:58;1.70;;;0.70;;
37545;SDS011;23389;52.484;13.572;2023-03-14T04:22:23;2.05;;;0.77;;
37545;SDS011;23389;52.484;13.572;2023-03-14T04:24:48;3.40;;;0.70;;
37545;SDS011;23389;52.484;13.572;2023-03-14T04:27:14;1.48;;;0.70;;
37545;SDS011;23389;52.484;13.572;2023-03-14T04:29:39;2.03;;;0.88;;
37545;SDS011;23389;52.484;13.572;2023-03-14T04:32:04;4.55;;;1.70;;
37545;SDS011;23389;52.484;13.572;2023-03-14T04:34:30;1.83;;;0.90;;
37545;SDS011;23389;52.484;13.572;2023-03-14T04:36:55;2.40;;;0.95;;
37545;SDS011;23389;52.484;13.572;2023-03-14T04:39:20;1.88;;;0.85;;
37545;SDS011;23389;52.484;13.572;2023-03-14T04:41:45;2.07;;;0.90;;
37545;SDS011;23389;52.484;13.572;2023-03-14T04:44:10;3.85;;;0.90;;
37545;SDS011;23389;52.484;13.572;2023-03-14T04:46:35;3.53;;;1.02;;
37545;SDS011;23389;52.484;13.572;2023-03-14T04:49:01;2.95;;;0.80;;
37545;SDS011;23389;52.484;13.572;2023-03-14T04:51:26;3.53;;;1.00;;
37545;SDS011;23389;52.484;13.572;2023-03-14T04:53:52;2.45;;;0.70;;
37545;SDS011;23389;52.484;13.572;2023-03-14T04:56:17;2.25;;;0.60;;
37545;SDS011;23389;52.484;13.572;2023-03-14T04:58:42;5.70;;;1.02;;
37545;SDS011;23389;52.484;13.572;2023-03-14T05:01:08;2.00;;;0.90;;
37545;SDS011;23389;52.484;13.572;2023-03-14T05:03:34;3.90;;;0.83;;
37545;SDS011;23389;52.484;13.572;2023-03-14T05:06:01;3.13;;;1.10;;
37545;SDS011;23389;52.484;13.572;2023-03-14T05:08:26;3.22;;;0.88;;
37545;SDS011;23389;52.484;13.572;2023-03-14T05:10:52;3.03;;;0.90;;
37545;SDS011;23389;52.484;13.572;2023-03-14T05:13:17;3.53;;;0.82;;
37545;SDS011;23389;52.484;13.572;2023-03-14T05:15:42;4.10;;;0.93;;
37545;SDS011;23389;52.484;13.572;2023-03-14T05:18:07;3.38;;;0.77;;
37545;SDS011;23389;52.484;13.572;2023-03-14T05:20:32;2.20;;;0.85;;
37545;SDS011;23389;52.484;13.572;2023-03-14T05:22:58;3.42;;;0.80;;
37545;SDS011;23389;52.484;13.572;2023-03-14T05:25:23;4.40;;;1.08;;
37545;SDS011;23389;52.484;13.572;2023-03-14T05:27:48;2.20;;;0.73;;
37545;SDS011;23389;52.484;13.572;2023-03-14T05:30:13;2.93;;;0.80;;
37545;SDS011;23389;52.484;13.572;2023-03-14T05:32:38;2.85;;;0.77;;
37545;SDS011;23389;52.484;13.572;2023-03-14T05:35:03;2.53;;;0.80;;
37545;SDS011;23389;52.484;13.572;2023-03-14T05:37:29;3.22;;;1.00;;
37545;SDS011;23389;52.484;13.572;2023-03-14T05:39:54;5.75;;;1.10;;
37545;SDS011;23389;52.484;13.572;2023-03-14T05:42:19;2.88;;;1.02;;
37545;SDS011;23389;52.484;13.572;2023-03-14T05:44:44;5.28;;;1.00;;
37545;SDS011;23389;52.484;13.572;2023-03-14T05:47:09;2.90;;;0.90;;
37545;SDS011;23389;52.484;13.572;2023-03-14T05:49:34;3.17;;;0.70;;
37545;SDS011;23389;52.484;13.572;2023-03-14T05:52:00;2.83;;;0.98;;
37545;SDS011;23389;52.484;13.572;2023-03-14T05:54:25;3.47;;;0.80;;
37545;SDS011;23389;52.484;13.572;2023-03-14T05:56:50;1.38;;;0.60;;
37545;SDS011;23389;52.484;13.572;2023-03-14T05:59:15;4.55;;;1.15;;
37545;SDS011;23389;52.484;13.572;2023-03-14T06:01:40;4.63;;;0.82;;
37545;SDS011;23389;52.484;13.572;2023-03-14T06:04:05;4.28;;;0.82;;
37545;SDS011;23389;52.484;13.572;2023-03-14T06:06:30;3.47;;;0.85;;
37545;SDS011;23389;52.484;13.572;2023-03-14T06:08:55;5.43;;;0.98;;
37545;SDS011;23389;52.484;13.572;2023-03-14T06:11:20;2.80;;;1.08;;
37545;SDS011;23389;52.484;13.572;2023-03-14T06:13:46;5.45;;;1.50;;
37545;SDS011;23389;52.484;13.572;2023-03-14T06:16:11;3.70;;;1.25;;
37545;SDS011;23389;52.484;13.572;2023-03-14T06:18:36;7.10;;;1.27;;
37545;SDS011;23389;52.484;13.572;2023-03-14T06:21:01;3.15;;;0.70;;
37545;SDS011;23389;52.484;13.572;2023-03-14T06:23:26;3.65;;;0.85;;
37545;SDS011;23389;52.484;13.572;2023-03-14T06:25:51;5.83;;;1.27;;
37545;SDS011;23389;52.484;13.572;2023-03-14T06:28:17;4.45;;;1.17;;
37545;SDS011;23389;52.484;13.572;2023-03-14T06:30:42;5.68;;;1.30;;
37545;SDS011;23389;52.484;13.572;2023-03-14T06:33:07;5.53;;;1.23;;
37545;SDS011;23389;52.484;13.572;2023-03-14T06:35:32;2.92;;;0.90;;
37545;SDS011;23389;52.484;13.572;2023-03-14T06:37:58;3.70;;;0.98;;
37545;SDS011;23389;52.484;13.572;2023-03-14T06:40:23;5.93;;;1.35;;
37545;SDS011;23389;52.484;13.572;2023-03-14T06:42:48;5.00;;;1.15;;
37545;SDS011;23389;52.484;13.572;2023-03-14T06:45:13;5.03;;;1.10;;
37545;SDS011;23389;52.484;13.572;2023-03-14T06:47:39;4.47;;;1.20;;
37545;SDS011;23389;52.484;13.572;2023-03-14T06:50:04;4.20;;;0.97;;
37545;SDS011;23389;52.484;13.572;2023-03-14T06:52:30;6.03;;;1.00;;
37545;SDS011;23389;52.484;13.572;2023-03-14T06:54:55;4.50;;;0.90;;
37545;SDS011;23389;52.484;13.572;2023-03-14T06:57:20;7.72;;;1.20;;
37545;SDS011;23389;52.484;13.572;2023-03-14T06:59:45;3.90;;;1.25;;
37545;SDS011;23389;52.484;13.572;2023-03-14T07:02:11;5.90;;;1.40;;
37545;SDS011;23389;52.484;13.572;2023-03-14T07:04:36;4.68;;;1.33;;
37545;SDS011;23389;52.484;13.572;2023-03-14T07:07:01;6.57;;;1.27;;
37545;SDS011;23389;52.484;13.572;2023-03-14T07:09:26;4.47;;;1.02;;
37545;SDS011;23389;52.484;13.572;2023-03-14T07:11:51;4.65;;;1.17;;
37545;SDS011;23389;52.484;13.572;2023-03-14T07:14:17;4.47;;;1.10;;
37545;SDS011;23389;52.484;13.572;2023-03-14T07:16:42;5.53;;;1.13;;
37545;SDS011;23389;52.484;13.572;2023-03-14T07:19:07;5.38;;;1.58;;
37545;SDS011;23389;52.484;13.572;2023-03-14T07:21:32;4.30;;;0.98;;
37545;SDS011;23389;52.484;13.572;2023-03-14T07:23:59;5.47;;;1.00;;
37545;SDS011;23389;52.484;13.572;2023-03-14T07:26:24;5.43;;;1.25;;
37545;SDS011;23389;52.484;13.572;2023-03-14T07:28:49;5.60;;;1.10;;
37545;SDS011;23389;52.484;13.572;2023-03-14T07:31:14;5.67;;;1.57;;
37545;SDS011;23389;52.484;13.572;2023-03-14T07:33:40;7.68;;;1.65;;
37545;SDS011;23389;52.484;13.572;2023-03-14T07:36:05;7.03;;;1.27;;
37545;SDS011;23389;52.484;13.572;2023-03-14T07:38:30;6.13;;;1.55;;
37545;SDS011;23389;52.484;13.572;2023-03-14T07:41:02;5.03;;;1.30;;
37545;SDS011;23389;52.484;13.572;2023-03-14T07:43:27;4.78;;;1.35;;
37545;SDS011;23389;52.484;13.572;2023-03-14T07:45:52;7.63;;;1.38;;
37545;SDS011;23389;52.484;13.572;2023-03-14T07:48:18;6.13;;;1.40;;
37545;SDS011;23389;52.484;13.572;2023-03-14T07:50:43;3.95;;;1.00;;
37545;SDS011;23389;52.484;13.572;2023-03-14T07:53:08;6.10;;;1.25;;
37545;SDS011;23389;52.484;13.572;2023-03-14T07:55:34;9.20;;;1.52;;
37545;SDS011;23389;52.484;13.572;2023-03-14T07:57:59;5.70;;;1.50;;
37545;SDS011;23389;52.484;13.572;2023-03-14T08:00:24;5.07;;;1.00;;
37545;SDS011;23389;52.484;13.572;2023-03-14T08:02:50;3.67;;;1.08;;
37545;SDS011;23389;52.484;13.572;2023-03-14T08:05:15;3.88;;;1.10;;
37545;SDS011;23389;52.484;13.572;2023-03-14T08:07:40;5.55;;;1.30;;
37545;SDS011;23389;52.484;13.572;2023-03-14T08:10:05;7.55;;;1.20;;
37545;SDS011;23389;52.484;13.572;2023-03-14T08:12:31;6.30;;;1.27;;
37545;SDS011;23389;52.484;13.572;2023-03-14T08:14:56;5.97;;;1.30;;
37545;SDS011;23389;52.484;13.572;2023-03-14T08:17:21;3.83;;;1.00;;
37545;SDS011;23389;52.484;13.572;2023-03-14T08:19:46;5.82;;;1.55;;
37545;SDS011;23389;52.484;13.572;2023-03-14T08:22:11;5.28;;;1.38;;
37545;SDS011;23389;52.484;13.572;2023-03-14T08:24:36;5.53;;;1.30;;
37545;SDS011;23389;52.484;13.572;2023-03-14T08:27:01;3.03;;;1.00;;
37545;SDS011;23389;52.484;13.572;2023-03-14T08:29:26;4.50;;;1.33;;
37545;SDS011;23389;52.484;13.572;2023-03-14T08:31:52;6.15;;;1.25;;
37545;SDS011;23389;52.484;13.572;2023-03-14T08:34:17;8.07;;;0.90;;
37545;SDS011;23389;52.484;13.572;2023-03-14T08:36:42;5.85;;;1.20;;
37545;SDS011;23389;52.484;13.572;2023-03-14T08:39:08;4.60;;;1.30;;
37545;SDS011;23389;52.484;13.572;2023-03-14T08:41:33;7.20;;;1.83;;
37545;SDS011;23389;52.484;13.572;2023-03-14T08:43:59;7.18;;;1.40;;
37545;SDS011;23389;52.484;13.572;2023-03-14T08:46:25;5.70;;;1.58;;
37545;SDS011;23389;52.484;13.572;2023-03-14T08:48:50;3.92;;;1.10;;
37545;SDS011;23389;52.484;13.572;2023-03-14T08:51:15;6.50;;;1.37;;
37545;SDS011;23389;52.484;13.572;2023-03-14T08:53:40;4.77;;;1.00;;
37545;SDS011;23389;52.484;13.572;2023-03-14T08:56:06;5.43;;;1.20;;
37545;SDS011;23389;52.484;13.572;2023-03-14T08:58:31;7.70;;;1.40;;
37545;SDS011;23389;52.484;13.572;2023-03-14T09:00:56;5.55;;;1.30;;
37545;SDS011;23389;52.484;13.572;2023-03-14T09:03:22;4.43;;;1.10;;
37545;SDS011;23389;52.484;13.572;2023-03-14T09:05:48;5.05;;;1.00;;
37545;SDS011;23389;52.484;13.572;2023-03-14T09:08:13;5.40;;;0.98;;
37545;SDS011;23389;52.484;13.572;2023-03-14T09:10:38;4.43;;;1.17;;
37545;SDS011;23389;52.484;13.572;2023-03-14T09:13:03;10.17;;;1.40;;
37545;SDS011;23389;52.484;13.572;2023-03-14T09:15:28;6.47;;;1.08;;
37545;SDS011;23389;52.484;13.572;2023-03-14T09:17:53;4.23;;;1.13;;
37545;SDS011;23389;52.484;13.572;2023-03-14T09:20:19;4.50;;;1.40;;
37545;SDS011;23389;52.484;13.572;2023-03-14T09:22:45;5.90;;;1.20;;
37545;SDS011;23389;52.484;13.572;2023-03-14T09:25:10;6.18;;;1.45;;
37545;SDS011;23389;52.484;13.572;2023-03-14T09:27:35;6.10;;;1.07;;
37545;SDS011;23389;52.484;13.572;2023-03-14T09:30:00;5.93;;;1.63;;
37545;SDS011;23389;52.484;13.572;2023-03-14T09:32:26;4.85;;;1.10;;
37545;SDS011;23389;52.484;13.572;2023-03-14T09:34:51;6.33;;;1.37;;
37545;SDS011;23389;52.484;13.572;2023-03-14T09:37:16;7.20;;;1.13;;
37545;SDS011;23389;52.484;13.572;2023-03-14T09:39:42;10.60;;;1.67;;
37545;SDS011;23389;52.484;13.572;2023-03-14T09:42:07;6.53;;;1.25;;
37545;SDS011;23389;52.484;13.572;2023-03-14T09:44:37;5.25;;;1.25;;
37545;SDS011;23389;52.484;13.572;2023-03-14T09:47:05;5.88;;;1.40;;
37545;SDS011;23389;52.484;13.572;2023-03-14T09:49:34;7.32;;;1.48;;
37545;SDS011;23389;52.484;13.572;2023-03-14T09:52:01;4.53;;;1.02;;
37545;SDS011;23389;52.484;13.572;2023-03-14T09:54:43;7.18;;;1.30;;
37545;SDS011;23389;52.484;13.572;2023-03-14T09:57:13;6.78;;;1.50;;
37545;SDS011;23389;52.484;13.572;2023-03-14T09:59:38;4.95;;;1.15;;
37545;SDS011;23389;52.484;13.572;2023-03-14T10:02:16;6.10;;;1.20;;
37545;SDS011;23389;52.484;13.572;2023-03-14T10:04:41;5.72;;;1.40;;
37545;SDS011;23389;52.484;13.572;2023-03-14T10:07:16;5.55;;;1.08;;
37545;SDS011;23389;52.484;13.572;2023-03-14T10:09:44;4.60;;;1.00;;
37545;SDS011;23389;52.484;13.572;2023-03-14T10:12:10;8.35;;;1.63;;
37545;SDS011;23389;52.484;13.572;2023-03-14T10:14:36;4.37;;;1.43;;
37545;SDS011;23389;52.484;13.572;2023-03-14T10:17:09;4.72;;;1.30;;
37545;SDS011;23389;52.484;13.572;2023-03-14T10:19:35;4.80;;;0.95;;
37545;SDS011;23389;52.484;13.572;2023-03-14T10:22:01;6.07;;;1.10;;
37545;SDS011;23389;52.484;13.572;2023-03-14T10:24:30;4.05;;;1.17;;
37545;SDS011;23389;52.484;13.572;2023-03-14T10:27:00;5.90;;;1.17;;
37545;SDS011;23389;52.484;13.572;2023-03-14T10:29:29;4.53;;;0.98;;
37545;SDS011;23389;52.484;13.572;2023-03-14T10:32:02;4.80;;;1.10;;
37545;SDS011;23389;52.484;13.572;2023-03-14T10:34:32;5.35;;;1.10;;
37545;SDS011;23389;52.484;13.572;2023-03-14T10:36:59;7.47;;;1.20;;
37545;SDS011;23389;52.484;13.572;2023-03-14T10:39:29;5.97;;;1.02;;
37545;SDS011;23389;52.484;13.572;2023-03-14T10:42:14;4.78;;;0.70;;
37545;SDS011;23389;52.484;13.572;2023-03-14T10:44:39;4.05;;;1.02;;
37545;SDS011;23389;52.484;13.572;2023-03-14T10:47:06;4.22;;;1.00;;
37545;SDS011;23389;52.484;13.572;2023-03-14T10:49:35;3.87;;;1.17;;
37545;SDS011;23389;52.484;13.572;2023-03-14T10:52:01;4.43;;;0.80;;
37545;SDS011;23389;52.484;13.572;2023-03-14T10:54:29;5.65;;;1.00;;
37545;SDS011;23389;52.484;13.572;2023-03-14T10:57:01;4.35;;;0.88;;
37545;SDS011;23389;52.484;13.572;2023-03-14T10:59:27;5.85;;;1.08;;
37545;SDS011;23389;52.484;13.572;2023-03-14T11:01:55;4.80;;;0.90;;
37545;SDS011;23389;52.484;13.572;2023-03-14T11:04:38;4.90;;;1.13;;
37545;SDS011;23389;52.484;13.572;2023-03-14T11:09:45;2.92;;;0.75;;
37545;SDS011;23389;52.484;13.572;2023-03-14T11:12:29;5.65;;;0.68;;
37545;SDS011;23389;52.484;13.572;2023-03-14T11:14:59;4.05;;;0.90;;
37545;SDS011;23389;52.484;13.572;2023-03-14T11:17:27;6.97;;;1.30;;
37545;SDS011;23389;52.484;13.572;2023-03-14T11:22:36;6.97;;;1.40;;
37545;SDS011;23389;52.484;13.572;2023-03-14T11:25:06;3.17;;;1.02;;
37545;SDS011;23389;52.484;13.572;2023-03-14T11:27:36;5.78;;;1.00;;
37545;SDS011;23389;52.484;13.572;2023-03-14T11:32:46;5.47;;;1.10;;
37545;SDS011;23389;52.484;13.572;2023-03-14T11:35:17;5.25;;;1.00;;
37545;SDS011;23389;52.484;13.572;2023-03-14T11:40:26;4.10;;;0.70;;
37545;SDS011;23389;52.484;13.572;2023-03-14T11:45:37;4.07;;;0.90;;
37545;SDS011;23389;52.484;13.572;2023-03-14T11:48:24;5.13;;;0.88;;
37545;SDS011;23389;52.484;13.572;2023-03-14T11:50:51;4.13;;;1.00;;
37545;SDS011;23389;52.484;13.572;2023-03-14T11:53:19;7.93;;;1.27;;
37545;SDS011;23389;52.484;13.572;2023-03-14T11:55:45;3.92;;;0.80;;
37545;SDS011;23389;52.484;13.572;2023-03-14T11:58:15;5.95;;;1.17;;
37545;SDS011;23389;52.484;13.572;2023-03-14T12:00:41;4.88;;;0.80;;
37545;SDS011;23389;52.484;13.572;2023-03-14T12:06:16;5.50;;;1.38;;
37545;SDS011;23389;52.484;13.572;2023-03-14T12:08:55;5.30;;;1.05;;
37545;SDS011;23389;52.484;13.572;2023-03-14T12:11:30;3.25;;;0.95;;
37545;SDS011;23389;52.484;13.572;2023-03-14T12:13:56;3.70;;;0.95;;
37545;SDS011;23389;52.484;13.572;2023-03-14T12:18:47;3.70;;;0.95;;
37545;SDS011;23389;52.484;13.572;2023-03-14T12:21:12;3.70;;;0.93;;
37545;SDS011;23389;52.484;13.572;2023-03-14T12:23:41;3.95;;;1.20;;
37545;SDS011;23389;52.484;13.572;2023-03-14T12:26:08;3.88;;;1.08;;
37545;SDS011;23389;52.484;13.572;2023-03-14T12:28:38;3.80;;;1.02;;
37545;SDS011;23389;52.484;13.572;2023-03-14T12:33:48;2.22;;;0.70;;
37545;SDS011;23389;52.484;13.572;2023-03-14T12:36:18;3.72;;;1.20;;
37545;SDS011;23389;52.484;13.572;2023-03-14T12:38:56;4.15;;;0.90;;
37545;SDS011;23389;52.484;13.572;2023-03-14T12:41:26;4.88;;;1.00;;
37545;SDS011;23389;52.484;13.572;2023-03-14T12:43:53;4.38;;;0.77;;
37545;SDS011;23389;52.484;13.572;2023-03-14T12:46:19;3.58;;;0.88;;
37545;SDS011;23389;52.484;13.572;2023-03-14T12:48:55;2.92;;;0.70;;
37545;SDS011;23389;52.484;13.572;2023-03-14T12:51:37;2.72;;;0.80;;
37545;SDS011;23389;52.484;13.572;2023-03-14T12:56:52;1.95;;;0.60;;
37545;SDS011;23389;52.484;13.572;2023-03-14T13:01:53;1.73;;;0.55;;
37545;SDS011;23389;52.484;13.572;2023-03-14T13:04:19;2.08;;;0.50;;
37545;SDS011;23389;52.484;13.572;2023-03-14T13:06:52;2.92;;;0.77;;
37545;SDS011;23389;52.484;13.572;2023-03-14T13:09:34;3.38;;;0.93;;
37545;SDS011;23389;52.484;13.572;2023-03-14T13:12:03;3.42;;;0.90;;
37545;SDS011;23389;52.484;13.572;2023-03-14T13:14:32;4.07;;;0.57;;
37545;SDS011;23389;52.484;13.572;2023-03-14T13:17:01;2.08;;;0.60;;
37545;SDS011;23389;52.484;13.572;2023-03-14T13:19:27;3.60;;;0.70;;
37545;SDS011;23389;52.484;13.572;2023-03-14T13:22:03;2.50;;;0.70;;
37545;SDS011;23389;52.484;13.572;2023-03-14T13:24:29;2.72;;;0.55;;
37545;SDS011;23389;52.484;13.572;2023-03-14T13:26:56;2.22;;;0.60;;
37545;SDS011;23389;52.484;13.572;2023-03-14T13:29:23;3.05;;;0.52;;
37545;SDS011;23389;52.484;13.572;2023-03-14T13:31:52;4.50;;;0.70;;
37545;SDS011;23389;52.484;13.572;2023-03-14T13:34:18;2.40;;;0.52;;
37545;SDS011;23389;52.484;13.572;2023-03-14T13:36:43;5.05;;;0.80;;
37545;SDS011;23389;52.484;13.572;2023-03-14T13:39:13;2.15;;;0.50;;
37545;SDS011;23389;52.484;13.572;2023-03-14T13:41:42;3.10;;;0.52;;
37545;SDS011;23389;52.484;13.572;2023-03-14T13:44:08;3.20;;;0.80;;
37545;SDS011;23389;52.484;13.572;2023-03-14T13:46:34;5.05;;;0.85;;
37545;SDS011;23389;52.484;13.572;2023-03-14T13:49:03;2.40;;;0.90;;
37545;SDS011;23389;52.484;13.572;2023-03-14T13:51:29;2.67;;;1.00;;
37545;SDS011;23389;52.484;13.572;2023-03-14T13:53:56;1.42;;;0.50;;
37545;SDS011;23389;52.484;13.572;2023-03-14T13:56:23;1.52;;;0.43;;
37545;SDS011;23389;52.484;13.572;2023-03-14T13:58:48;2.47;;;0.40;;
37545;SDS011;23389;52.484;13.572;2023-03-14T14:01:15;0.90;;;0.30;;
37545;SDS011;23389;52.484;13.572;2023-03-14T14:03:41;0.95;;;0.30;;
37545;SDS011;23389;52.484;13.572;2023-03-14T14:06:16;2.83;;;0.50;;
37545;SDS011;23389;52.484;13.572;2023-03-14T14:08:44;1.48;;;0.40;;
37545;SDS011;23389;52.484;13.572;2023-03-14T14:11:10;2.58;;;0.50;;
37545;SDS011;23389;52.484;13.572;2023-03-14T14:13:39;1.55;;;0.30;;
37545;SDS011;23389;52.484;13.572;2023-03-14T14:16:05;1.20;;;0.40;;
37545;SDS011;23389;52.484;13.572;2023-03-14T14:18:30;2.78;;;0.50;;
37545;SDS011;23389;52.484;13.572;2023-03-14T14:20:56;2.05;;;0.40;;
37545;SDS011;23389;52.484;13.572;2023-03-14T14:23:21;1.40;;;0.25;;
37545;SDS011;23389;52.484;13.572;2023-03-14T14:25:50;3.65;;;0.70;;
37545;SDS011;23389;52.484;13.572;2023-03-14T14:28:36;2.65;;;0.60;;
37545;SDS011;23389;52.484;13.572;2023-03-14T14:33:39;1.48;;;0.52;;
37545;SDS011;23389;52.484;13.572;2023-03-14T14:36:05;1.38;;;0.47;;
37545;SDS011;23389;52.484;13.572;2023-03-14T14:38:37;3.90;;;0.80;;
37545;SDS011;23389;52.484;13.572;2023-03-14T14:41:02;3.97;;;1.05;;
37545;SDS011;23389;52.484;13.572;2023-03-14T14:43:28;1.55;;;0.40;;
37545;SDS011;23389;52.484;13.572;2023-03-14T14:45:55;2.38;;;0.60;;
37545;SDS011;23389;52.484;13.572;2023-03-14T14:48:24;1.88;;;0.43;;
37545;SDS011;23389;52.484;13.572;2023-03-14T14:50:57;2.83;;;0.50;;
37545;SDS011;23389;52.484;13.572;2023-03-14T14:55:53;1.77;;;0.50;;
37545;SDS011;23389;52.484;13.572;2023-03-14T14:58:28;1.17;;;0.60;;
37545;SDS011;23389;52.484;13.572;2023-03-14T15:00:57;2.83;;;0.50;;
37545;SDS011;23389;52.484;13.572;2023-03-14T15:03:25;1.73;;;0.40;;
37545;SDS011;23389;52.484;13.572;2023-03-14T15:05:51;6.00;;;0.57;;
37545;SDS011;23389;52.484;13.572;2023-03-14T15:08:16;2.83;;;0.47;;